Time,TemperatureF,DewpointF,PressureIn,WindDirection,WindDirectionDegrees,WindSpeedMPH,WindSpeedGustMPH,Humidity,HourlyPrecipIn,Conditions,Clouds,dailyrainin,SoftwareType,DateUTC
2013-01-13 00:02:00,19.0,14.0,28.45,WNW,301,1.0,8.0,82,0.00,,,0.00,,2013-01-13 08:02:00,
2013-01-13 00:11:00,19.0,14.0,28.45,WNW,301,1.0,8.0,82,0.00,,,0.00,,2013-01-13 08:11:00,
2013-01-13 00:22:00,19.0,14.0,28.46,NW,315,6.0,12.0,81,0.00,,,0.00,,2013-01-13 08:22:00,
2013-01-13 00:32:00,20.0,15.0,28.46,NNW,345,5.0,14.0,80,0.00,,,0.00,,2013-01-13 08:32:00,
2013-01-13 00:42:00,20.0,15.0,28.46,NNW,345,5.0,14.0,80,0.00,,,0.00,,2013-01-13 08:42:00,
2013-01-13 00:52:00,18.0,13.0,28.45,WSW,248,0.0,1.0,81,0.00,,,0.00,,2013-01-13 08:52:00,
2013-01-13 01:02:00,17.0,13.0,28.45,WSW,248,0.0,0.0,84,0.00,,,0.00,,2013-01-13 09:02:00,
2013-01-13 01:11:00,19.0,14.0,28.44,NNW,340,5.0,13.0,82,0.00,,,0.00,,2013-01-13 09:11:00,
2013-01-13 01:22:00,19.0,14.0,28.44,NNW,340,5.0,13.0,82,0.00,,,0.00,,2013-01-13 09:22:00,
2013-01-13 01:32:00,20.0,14.0,28.44,West,264,5.0,10.0,78,0.00,,,0.00,,2013-01-13 09:32:00,
2013-01-13 01:42:00,20.0,14.0,28.44,West,264,5.0,10.0,78,0.00,,,0.00,,2013-01-13 09:42:00,
2013-01-13 01:52:00,20.0,14.0,28.44,NW,314,9.0,13.0,77,0.00,,,0.00,,2013-01-13 09:52:00,
2013-01-13 02:02:00,19.0,14.0,28.43,WSW,253,0.0,3.0,81,0.00,,,0.00,,2013-01-13 10:02:00,
2013-01-13 02:11:00,19.0,14.0,28.43,WSW,253,0.0,3.0,81,0.00,,,0.00,,2013-01-13 10:11:00,
2013-01-13 02:22:00,18.0,14.0,28.43,WNW,291,0.0,1.0,84,0.00,,,0.00,,2013-01-13 10:22:00,
2013-01-13 02:32:00,17.0,13.0,28.45,NW,307,0.0,3.0,85,0.00,,,0.00,,2013-01-13 10:32:00,
2013-01-13 02:42:00,17.0,13.0,28.45,NW,307,0.0,3.0,85,0.00,,,0.00,,2013-01-13 10:42:00,
2013-01-13 02:52:00,17.0,13.0,28.45,WNW,294,0.0,2.0,84,0.00,,,0.00,,2013-01-13 10:52:00,
2013-01-13 03:02:00,17.0,13.0,28.45,NNW,330,3.0,5.0,83,0.00,,,0.00,,2013-01-13 11:02:00,
2013-01-13 03:11:00,17.0,13.0,28.45,NNW,330,3.0,5.0,83,0.00,,,0.00,,2013-01-13 11:11:00,
2013-01-13 03:22:00,17.0,12.0,28.46,NW,307,2.0,6.0,82,0.00,,,0.00,,2013-01-13 11:22:00,
2013-01-13 03:32:00,17.0,13.0,28.46,SW,229,0.0,3.0,83,0.00,,,0.00,,2013-01-13 11:32:00,
2013-01-13 03:42:00,17.0,13.0,28.46,SW,229,0.0,3.0,83,0.00,,,0.00,,2013-01-13 11:42:00,
2013-01-13 03:52:00,17.0,14.0,28.47,WSW,245,0.0,3.0,86,0.00,,,0.00,,2013-01-13 11:52:00,
2013-01-13 04:02:00,17.0,13.0,28.46,SW,229,0.0,3.0,85,0.00,,,0.00,,2013-01-13 12:02:00,
2013-01-13 04:12:00,17.0,13.0,28.46,SW,229,0.0,3.0,85,0.00,,,0.00,,2013-01-13 12:12:00,
2013-01-13 04:22:00,17.0,13.0,28.46,SW,233,0.0,1.0,84,0.00,,,0.00,,2013-01-13 12:22:00,
2013-01-13 04:32:00,16.0,13.0,28.45,SW,236,0.0,1.0,86,0.00,,,0.00,,2013-01-13 12:32:00,
2013-01-13 04:42:00,16.0,13.0,28.45,SW,236,0.0,1.0,86,0.00,,,0.00,,2013-01-13 12:42:00,
2013-01-13 04:52:00,16.0,12.0,28.44,ESE,104,0.0,1.0,85,0.00,,,0.00,,2013-01-13 12:52:00,
2013-01-13 05:02:00,16.0,12.0,28.44,NNE,18,3.0,5.0,84,0.00,,,0.00,,2013-01-13 13:02:00,
2013-01-13 05:12:00,16.0,12.0,28.44,NNE,18,3.0,5.0,84,0.00,,,0.00,,2013-01-13 13:12:00,
2013-01-13 05:22:00,16.0,12.0,28.45,NNW,335,3.0,7.0,84,0.00,,,0.00,,2013-01-13 13:22:00,
2013-01-13 05:32:00,16.0,12.0,28.45,SSE,165,0.0,1.0,84,0.00,,,0.00,,2013-01-13 13:32:00,
2013-01-13 05:42:00,16.0,12.0,28.45,SSE,165,0.0,1.0,84,0.00,,,0.00,,2013-01-13 13:42:00,
2013-01-13 05:52:00,16.0,12.0,28.46,NNW,335,4.0,7.0,85,0.00,,,0.00,,2013-01-13 13:52:00,
2013-01-13 06:02:00,16.0,12.0,28.46,NNW,335,4.0,7.0,85,0.00,,,0.00,,2013-01-13 14:02:00,
2013-01-13 06:12:00,16.0,12.0,28.46,NNW,335,4.0,7.0,85,0.00,,,0.00,,2013-01-13 14:12:00,
2013-01-13 06:22:00,17.0,12.0,28.47,NW,306,7.0,11.0,81,0.00,,,0.00,,2013-01-13 14:22:00,
2013-01-13 06:33:00,17.0,12.0,28.48,NNW,332,4.0,8.0,82,0.00,,,0.00,,2013-01-13 14:33:00,
2013-01-13 06:42:00,17.0,12.0,28.48,NNW,332,4.0,8.0,82,0.00,,,0.00,,2013-01-13 14:42:00,
2013-01-13 06:52:00,16.0,12.0,28.48,NNW,332,2.0,4.0,83,0.00,,,0.00,,2013-01-13 14:52:00,
2013-01-13 07:02:00,16.0,12.0,28.49,WNW,297,0.0,6.0,83,0.00,,,0.00,,2013-01-13 15:02:00,
2013-01-13 07:12:00,16.0,12.0,28.49,WNW,297,0.0,6.0,83,0.00,,,0.00,,2013-01-13 15:12:00,
2013-01-13 07:22:00,16.0,12.0,28.49,NW,326,2.0,4.0,84,0.00,,,0.00,,2013-01-13 15:22:00,
2013-01-13 07:33:00,16.0,12.0,28.50,NW,311,2.0,5.0,83,0.00,,,0.00,,2013-01-13 15:33:00,
2013-01-13 07:42:00,16.0,12.0,28.50,NW,311,2.0,5.0,83,0.00,,,0.00,,2013-01-13 15:42:00,
2013-01-13 07:52:00,16.0,12.0,28.50,WNW,298,2.0,4.0,83,0.00,,,0.00,,2013-01-13 15:52:00,
2013-01-13 08:03:00,17.0,12.0,28.51,NW,321,3.0,7.0,81,0.00,,,0.00,,2013-01-13 16:03:00,
2013-01-13 08:12:00,17.0,12.0,28.51,NW,321,3.0,7.0,81,0.00,,,0.00,,2013-01-13 16:12:00,
2013-01-13 08:22:00,17.0,12.0,28.51,NW,314,5.0,8.0,81,0.00,,,0.00,,2013-01-13 16:22:00,
2013-01-13 08:33:00,17.0,12.0,28.52,WNW,293,2.0,7.0,81,0.00,,,0.00,,2013-01-13 16:33:00,
2013-01-13 08:42:00,17.0,12.0,28.52,WNW,293,2.0,7.0,81,0.00,,,0.00,,2013-01-13 16:42:00,
2013-01-13 08:52:00,15.0,11.0,28.53,North,11,0.0,2.0,83,0.00,,,0.00,,2013-01-13 16:52:00,
2013-01-13 09:03:00,15.0,11.0,28.53,ESE,122,0.0,1.0,85,0.00,,,0.00,,2013-01-13 17:03:00,
2013-01-13 09:12:00,15.0,11.0,28.53,ESE,122,0.0,1.0,85,0.00,,,0.00,,2013-01-13 17:12:00,
2013-01-13 09:22:00,16.0,12.0,28.54,ESE,122,0.0,1.0,84,0.00,,,0.00,,2013-01-13 17:22:00,
2013-01-13 09:33:00,17.0,13.0,28.53,ESE,121,0.0,0.0,84,0.00,,,0.00,,2013-01-13 17:33:00,
2013-01-13 09:42:00,17.0,13.0,28.53,ESE,121,0.0,0.0,84,0.00,,,0.00,,2013-01-13 17:42:00,
2013-01-13 09:52:00,17.0,12.0,28.53,North,8,0.0,2.0,82,0.00,,,0.00,,2013-01-13 17:52:00,
2013-01-13 10:02:00,17.0,12.0,28.53,NNW,333,3.0,6.0,81,0.00,,,0.00,,2013-01-13 18:02:00,
2013-01-13 10:12:00,17.0,12.0,28.53,NNW,333,3.0,6.0,81,0.00,,,0.00,,2013-01-13 18:12:00,
2013-01-13 10:22:00,17.0,12.0,28.53,NNW,347,2.0,6.0,82,0.00,,,0.00,,2013-01-13 18:22:00,
2013-01-13 10:32:00,17.0,12.0,28.53,North,6,1.0,6.0,82,0.00,,,0.00,,2013-01-13 18:32:00,
2013-01-13 10:42:00,17.0,12.0,28.53,North,6,1.0,6.0,82,0.00,,,0.00,,2013-01-13 18:42:00,
2013-01-13 10:53:00,18.0,13.0,28.53,North,359,1.0,3.0,81,0.00,,,0.00,,2013-01-13 18:53:00,
2013-01-13 11:02:00,18.0,13.0,28.53,West,273,1.0,6.0,80,0.00,,,0.00,,2013-01-13 19:02:00,
2013-01-13 11:12:00,18.0,13.0,28.53,West,273,1.0,6.0,80,0.00,,,0.00,,2013-01-13 19:12:00,
2013-01-13 11:22:00,19.0,14.0,28.52,NNE,29,0.0,2.0,79,0.00,,,0.00,,2013-01-13 19:22:00,
2013-01-13 11:33:00,20.0,15.0,28.51,NNW,330,0.0,1.0,79,0.00,,,0.00,,2013-01-13 19:33:00,
2013-01-13 11:42:00,20.0,15.0,28.51,NNW,330,0.0,1.0,79,0.00,,,0.00,,2013-01-13 19:42:00,
2013-01-13 11:52:00,21.0,15.0,28.51,North,349,0.0,1.0,78,0.00,,,0.00,,2013-01-13 19:52:00,
2013-01-13 12:02:00,22.0,16.0,28.50,ENE,73,0.0,1.0,78,0.00,,,0.00,,2013-01-13 20:02:00,
2013-01-13 12:11:00,22.0,16.0,28.50,ENE,73,0.0,1.0,78,0.00,,,0.00,,2013-01-13 20:11:00,
2013-01-13 12:22:00,23.0,17.0,28.50,North,355,0.0,1.0,77,0.00,,,0.00,,2013-01-13 20:22:00,
2013-01-13 12:32:00,23.0,16.0,28.50,NE,53,0.0,2.0,74,0.00,,,0.00,,2013-01-13 20:32:00,
2013-01-13 12:43:00,23.0,16.0,28.50,NE,53,0.0,2.0,74,0.00,,,0.00,,2013-01-13 20:43:00,
2013-01-13 12:52:00,24.0,17.0,28.49,NE,50,0.0,1.0,75,0.00,,,0.00,,2013-01-13 20:52:00,
2013-01-13 13:02:00,25.0,18.0,28.49,ESE,120,0.0,3.0,73,0.00,,,0.00,,2013-01-13 21:02:00,
2013-01-13 13:12:00,25.0,18.0,28.49,ESE,120,0.0,3.0,73,0.00,,,0.00,,2013-01-13 21:12:00,
2013-01-13 13:22:00,26.0,18.0,28.49,SE,126,0.0,2.0,71,0.00,,,0.00,,2013-01-13 21:22:00,
2013-01-13 13:32:00,26.0,18.0,28.49,ESE,117,0.0,1.0,71,0.00,,,0.00,,2013-01-13 21:32:00,
2013-01-13 13:42:00,26.0,18.0,28.49,ESE,117,0.0,1.0,71,0.00,,,0.00,,2013-01-13 21:42:00,
2013-01-13 13:52:00,26.0,18.0,28.49,ESE,113,0.0,1.0,70,0.00,,,0.00,,2013-01-13 21:52:00,
2013-01-13 14:02:00,27.0,18.0,28.48,ESE,105,0.0,1.0,69,0.00,,,0.00,,2013-01-13 22:02:00,
2013-01-13 14:12:00,27.0,18.0,28.48,ESE,105,0.0,1.0,69,0.00,,,0.00,,2013-01-13 22:12:00,
2013-01-13 14:22:00,27.0,18.0,28.48,East,94,0.0,2.0,68,0.00,,,0.00,,2013-01-13 22:22:00,
2013-01-13 14:33:00,26.0,17.0,28.48,East,89,0.0,1.0,69,0.00,,,0.00,,2013-01-13 22:33:00,
2013-01-13 14:42:00,26.0,17.0,28.48,East,89,0.0,1.0,69,0.00,,,0.00,,2013-01-13 22:42:00,
2013-01-13 14:52:00,26.0,17.0,28.47,ENE,59,0.0,1.0,69,0.00,,,0.00,,2013-01-13 22:52:00,
2013-01-13 15:02:00,26.0,18.0,28.48,NW,325,0.0,1.0,70,0.00,,,0.00,,2013-01-13 23:02:00,
2013-01-13 15:12:00,26.0,18.0,28.48,NW,325,0.0,1.0,70,0.00,,,0.00,,2013-01-13 23:12:00,
2013-01-13 15:22:00,26.0,18.0,28.48,NW,324,0.0,0.0,70,0.00,,,0.00,,2013-01-13 23:22:00,
2013-01-13 15:32:00,26.0,18.0,28.48,NW,325,0.0,1.0,71,0.00,,,0.00,,2013-01-13 23:32:00,
2013-01-13 15:42:00,26.0,18.0,28.48,NW,325,0.0,1.0,71,0.00,,,0.00,,2013-01-13 23:42:00,
2013-01-13 15:52:00,26.0,18.0,28.47,NW,325,0.0,1.0,70,0.00,,,0.00,,2013-01-13 23:52:00,
2013-01-13 16:02:00,26.0,18.0,28.47,NW,325,0.0,1.0,70,0.00,,,0.00,,2013-01-14 00:02:00,
2013-01-13 16:12:00,26.0,18.0,28.47,NW,325,0.0,1.0,70,0.00,,,0.00,,2013-01-14 00:12:00,
2013-01-13 16:22:00,25.0,17.0,28.47,NW,326,0.0,-999.0,71,-99.99,,,-99.99,,2013-01-14 00:22:00,
2013-01-13 16:32:00,24.0,17.0,28.47,NW,326,0.0,0.0,74,0.00,,,0.00,,2013-01-14 00:32:00,
2013-01-13 16:42:00,24.0,17.0,28.47,NW,326,0.0,0.0,74,0.00,,,0.00,,2013-01-14 00:42:00,
2013-01-13 16:52:00,24.0,18.0,28.48,NW,326,0.0,0.0,76,0.00,,,0.00,,2013-01-14 00:52:00,
2013-01-13 17:02:00,24.0,18.0,28.48,NW,326,0.0,0.0,76,0.00,,,0.00,,2013-01-14 01:02:00,
2013-01-13 17:12:00,24.0,18.0,28.48,NW,326,0.0,0.0,76,0.00,,,0.00,,2013-01-14 01:12:00,
2013-01-13 17:22:00,22.0,16.0,28.48,NW,326,0.0,0.0,79,0.00,,,0.00,,2013-01-14 01:22:00,
2013-01-13 17:32:00,22.0,17.0,28.48,NW,326,0.0,0.0,80,0.00,,,0.00,,2013-01-14 01:32:00,
2013-01-13 17:42:00,22.0,17.0,28.48,NW,326,0.0,0.0,80,0.00,,,0.00,,2013-01-14 01:42:00,
2013-01-13 17:52:00,22.0,17.0,28.48,NW,326,0.0,0.0,82,0.00,,,0.00,,2013-01-14 01:52:00,
2013-01-13 18:02:00,21.0,17.0,28.48,NW,326,0.0,0.0,83,0.00,,,0.00,,2013-01-14 02:02:00,
2013-01-13 18:12:00,21.0,17.0,28.48,NW,326,0.0,0.0,83,0.00,,,0.00,,2013-01-14 02:12:00,
2013-01-13 18:22:00,22.0,18.0,28.49,SW,214,0.0,1.0,83,0.00,,,0.00,,2013-01-14 02:22:00,
2013-01-13 18:32:00,22.0,17.0,28.47,SW,228,0.0,1.0,82,0.00,,,0.00,,2013-01-14 02:32:00,
2013-01-13 18:42:00,22.0,17.0,28.47,SW,228,0.0,1.0,82,0.00,,,0.00,,2013-01-14 02:42:00,
2013-01-13 18:52:00,21.0,17.0,28.48,SW,228,0.0,0.0,84,0.00,,,0.00,,2013-01-14 02:52:00,
2013-01-13 19:02:00,21.0,17.0,28.47,SW,222,0.0,1.0,85,0.00,,,0.00,,2013-01-14 03:02:00,
2013-01-13 19:12:00,21.0,17.0,28.47,SW,222,0.0,1.0,85,0.00,,,0.00,,2013-01-14 03:12:00,
2013-01-13 19:22:00,21.0,17.0,28.47,SW,222,0.0,1.0,85,0.00,,,0.00,,2013-01-14 03:22:00,
2013-01-13 19:32:00,21.0,17.0,28.47,SW,222,0.0,0.0,86,0.00,,,0.00,,2013-01-14 03:32:00,
2013-01-13 19:42:00,21.0,17.0,28.47,SW,222,0.0,0.0,86,0.00,,,0.00,,2013-01-14 03:42:00,
2013-01-13 19:52:00,21.0,17.0,28.48,SW,222,0.0,0.0,86,0.00,,,0.00,,2013-01-14 03:52:00,
2013-01-13 20:02:00,21.0,17.0,28.47,SSW,208,0.0,1.0,86,0.00,,,0.00,,2013-01-14 04:02:00,
2013-01-13 20:12:00,21.0,17.0,28.47,SSW,208,0.0,1.0,86,0.00,,,0.00,,2013-01-14 04:12:00,
2013-01-13 20:22:00,21.0,17.0,28.47,SSW,208,0.0,1.0,86,0.00,,,0.00,,2013-01-14 04:22:00,
2013-01-13 20:32:00,21.0,17.0,28.49,SSW,208,0.0,0.0,85,0.00,,,0.00,,2013-01-14 04:32:00,
2013-01-13 20:42:00,21.0,17.0,28.49,SSW,208,0.0,0.0,85,0.00,,,0.00,,2013-01-14 04:42:00,
2013-01-13 20:53:00,21.0,17.0,28.48,SSW,209,0.0,0.0,86,0.00,,,0.00,,2013-01-14 04:53:00,
2013-01-13 21:03:00,21.0,17.0,28.48,SSW,208,0.0,0.0,86,0.00,,,0.00,,2013-01-14 05:03:00,
2013-01-13 21:12:00,21.0,17.0,28.48,SSW,208,0.0,0.0,86,0.00,,,0.00,,2013-01-14 05:12:00,
2013-01-13 21:22:00,21.0,17.0,28.49,SSW,208,0.0,0.0,86,0.00,,,0.00,,2013-01-14 05:22:00,
2013-01-13 21:32:00,22.0,18.0,28.49,SSW,208,0.0,0.0,86,0.00,,,0.00,,2013-01-14 05:32:00,
2013-01-13 21:42:00,22.0,18.0,28.49,SSW,208,0.0,0.0,86,0.00,,,0.00,,2013-01-14 05:42:00,
2013-01-13 21:52:00,22.0,18.0,28.48,SSW,208,0.0,1.0,86,0.00,,,0.00,,2013-01-14 05:52:00,
2013-01-13 22:02:00,22.0,18.0,28.49,SW,236,0.0,1.0,86,0.00,,,0.00,,2013-01-14 06:02:00,
2013-01-13 22:11:00,22.0,18.0,28.49,SW,236,0.0,1.0,86,0.00,,,0.00,,2013-01-14 06:11:00,
2013-01-13 22:22:00,22.0,18.0,28.49,SW,233,0.0,1.0,85,0.00,,,0.00,,2013-01-14 06:22:00,
2013-01-13 22:32:00,22.0,18.0,28.50,SW,233,0.0,0.0,85,0.00,,,0.00,,2013-01-14 06:32:00,
2013-01-13 22:42:00,22.0,18.0,28.50,SW,233,0.0,0.0,85,0.00,,,0.00,,2013-01-14 06:42:00,
2013-01-13 22:52:00,23.0,19.0,28.50,SW,233,0.0,1.0,85,0.00,,,0.00,,2013-01-14 06:52:00,
2013-01-13 23:02:00,23.0,19.0,28.49,SW,233,0.0,1.0,85,0.00,,,0.00,,2013-01-14 07:02:00,
2013-01-13 23:11:00,23.0,19.0,28.49,SW,233,0.0,1.0,85,0.00,,,0.00,,2013-01-14 07:11:00,
2013-01-13 23:22:00,23.0,19.0,28.48,SW,225,0.0,1.0,85,0.00,,,0.00,,2013-01-14 07:22:00,
2013-01-13 23:32:00,23.0,19.0,28.49,WNW,285,0.0,1.0,84,0.00,,,0.00,,2013-01-14 07:32:00,
2013-01-13 23:42:00,23.0,19.0,28.49,WNW,285,0.0,1.0,84,0.00,,,0.00,,2013-01-14 07:42:00,
2013-01-13 23:52:00,23.0,19.0,28.48,WNW,285,0.0,0.0,84,0.00,,,0.00,,2013-01-14 07:52:00,